Grafton, Virginia
Current Conditions -  °F | °C
As of 6:54 PM on Sunday 25 Jan 2015 (Local Time) from KPHF Reporting Station
Clear Clear  
Wind Chill: 39°   Ceiling: Unl
Heat Index: 43°   Visibility: 10mi
Dew Point: 32°   Wind: 6mph
Humidity: 65%   Direction: 130°SE
Pressure: 29.87"   Gusts: NA
Location:  37.1781°N, 76.4669°W
Report Text: KPHF 252354Z 13005KT 10SM CLR 06/00 A2987 RMK AO2 SLP114 60000 T00610000 10122 20044 53002
Loading
Personal Weather Stations






























Interactive Weather Map New forecast layout! Learn more

10-Day Weather Forecast

Advertisements
Track Severe Weather on mobile